Time;durP1;ratioP1;P1;durP2;ratioP2;P2;SDS_P1;SDS_P2;PMS_P1;PMS_P2;Temp;Humidity;BMP_temperature;BMP_pressure;BME280_temperature;BME280_humidity;BME280_pressure;Samples;Min_cycle;Max_cycle;Signal;HPM_P1;HPM_P2
2022/06/27 00:01:52;;;;;;;0.63;0.50;;;22.60;44.30;;;;;;4952696;23;20035;-65
2022/06/27 00:03:54;;;;;;;0.53;0.53;;;22.60;44.30;;;;;;4974106;23;20484;-63
2022/06/27 00:05:56;;;;;;;0.45;0.45;;;22.70;44.10;;;;;;4942917;23;20674;-63
2022/06/27 00:07:58;;;;;;;0.45;0.45;;;22.80;44.10;;;;;;4975927;23;20450;-62
2022/06/27 00:10:01;;;;;;;1.77;0.50;;;22.80;44.50;;;;;;4949950;23;20354;-63
2022/06/27 00:12:03;;;;;;;0.65;0.50;;;22.60;44.70;;;;;;4968505;23;20612;-62
2022/06/27 00:14:06;;;;;;;0.65;0.65;;;22.50;45.00;;;;;;4945419;23;20461;-62
2022/06/27 00:16:08;;;;;;;0.65;0.45;;;22.30;45.40;;;;;;4949023;23;20071;-62
2022/06/27 00:18:10;;;;;;;1.23;0.40;;;22.20;45.70;;;;;;4943088;23;20083;-63
2022/06/27 00:20:13;;;;;;;0.40;0.40;;;22.10;46.10;;;;;;4943502;23;20031;-64
2022/06/27 00:22:16;;;;;;;0.75;0.43;;;21.90;46.30;;;;;;4975259;23;20497;-63
2022/06/27 00:24:18;;;;;;;0.50;0.43;;;21.80;46.60;;;;;;4947777;23;20475;-63
2022/06/27 00:26:20;;;;;;;0.45;0.45;;;21.60;46.80;;;;;;4942716;23;20099;-63
2022/06/27 00:28:22;;;;;;;0.40;0.40;;;21.50;47.00;;;;;;4974396;23;20054;-62
2022/06/27 00:30:25;;;;;;;0.30;0.30;;;21.40;47.20;;;;;;4975903;23;20113;-63
2022/06/27 00:32:29;;;;;;;0.40;0.40;;;21.30;47.30;;;;;;4972138;23;20026;-63
2022/06/27 00:34:31;;;;;;;0.40;0.40;;;21.20;47.40;;;;;;4969619;23;20114;-63
2022/06/27 00:36:33;;;;;;;0.40;0.40;;;21.10;47.60;;;;;;4952672;23;20103;-63
2022/06/27 00:38:36;;;;;;;0.30;0.30;;;21.10;47.70;;;;;;4947719;23;20122;-62
2022/06/27 00:40:38;;;;;;;1.33;0.40;;;21.00;47.70;;;;;;4971299;23;20037;-63
2022/06/27 00:42:40;;;;;;;0.65;0.40;;;20.90;47.90;;;;;;4977461;23;20090;-62
2022/06/27 00:44:43;;;;;;;0.40;0.40;;;20.80;48.00;;;;;;4926870;23;20056;-63
2022/06/27 00:46:48;;;;;;;0.40;0.40;;;20.80;48.10;;;;;;4941503;23;20031;-63
2022/06/27 00:48:51;;;;;;;0.40;0.40;;;20.70;48.10;;;;;;4969625;23;20035;-62
2022/06/27 00:50:53;;;;;;;0.63;0.43;;;20.70;48.30;;;;;;4927820;23;20103;-62
2022/06/27 00:52:55;;;;;;;0.40;0.35;;;20.60;48.50;;;;;;4974330;23;20131;-64
2022/06/27 00:54:58;;;;;;;0.30;0.30;;;20.60;48.60;;;;;;4945592;23;20435;-62
2022/06/27 00:57:00;;;;;;;0.77;0.60;;;20.50;48.50;;;;;;4950648;23;20110;-63
2022/06/27 00:59:03;;;;;;;1.27;0.30;;;20.40;48.80;;;;;;4953144;23;20451;-63
2022/06/27 01:01:05;;;;;;;0.45;0.45;;;20.40;48.80;;;;;;4969675;23;20366;-63
2022/06/27 01:03:07;;;;;;;0.47;0.30;;;20.30;48.60;;;;;;4970609;23;20925;-63
2022/06/27 01:05:15;;;;;;;0.30;0.30;;;20.30;48.70;;;;;;4975938;23;20146;-62
2022/06/27 01:07:17;;;;;;;1.10;0.60;;;20.20;48.90;;;;;;4950097;23;20066;-62
2022/06/27 01:09:21;;;;;;;0.65;0.57;;;20.20;49.00;;;;;;4972599;23;20912;-60
2022/06/27 01:11:23;;;;;;;1.27;0.50;;;20.10;49.00;;;;;;4948643;23;20035;-66
2022/06/27 01:13:25;;;;;;;1.27;0.57;;;20.10;49.00;;;;;;4951451;23;20523;-65
2022/06/27 01:15:28;;;;;;;1.15;0.65;;;20.00;49.30;;;;;;4971145;23;20909;-62
2022/06/27 01:17:30;;;;;;;2.75;0.90;;;20.10;49.50;;;;;;4946536;23;20039;-61
2022/06/27 01:19:33;;;;;;;3.67;0.90;;;20.70;48.90;;;;;;4950443;23;20031;-62
2022/06/27 01:21:50;;;;;;;1.20;0.55;;;21.40;47.90;;;;;;4975467;23;20031;-63
2022/06/27 01:23:52;;;;;;;1.98;0.80;;;22.10;46.90;;;;;;4948768;23;20039;-63
2022/06/27 01:25:56;;;;;;;1.23;0.77;;;22.70;45.90;;;;;;4946522;23;20490;-61
2022/06/27 01:27:59;;;;;;;2.67;0.77;;;23.10;45.40;;;;;;4943749;23;20106;-62
2022/06/27 01:30:02;;;;;;;2.08;0.75;;;23.50;44.60;;;;;;4926615;23;20027;-60
2022/06/27 01:32:04;;;;;;;;;;;23.90;44.10;;;;;;4977559;23;20452;-59
2022/06/27 01:34:08;;;;;;;1.95;0.60;;;24.00;44.00;;;;;;4944624;23;19921;-59
2022/06/27 01:38:30;;;;;;;1.60;0.73;;;23.50;44.50;;;;;;4970704;23;20075;-63
2022/06/27 01:40:33;;;;;;;1.77;0.77;;;23.10;45.20;;;;;;4921914;23;20031;-62
2022/06/27 01:42:36;;;;;;;1.30;0.60;;;22.80;45.70;;;;;;4977294;23;20398;-61
2022/06/27 01:44:38;;;;;;;2.78;0.80;;;22.50;46.30;;;;;;4944597;23;20146;-63
2022/06/27 01:46:43;;;;;;;11.40;1.00;;;22.30;46.70;;;;;;4946391;23;20102;-62
2022/06/27 01:48:45;;;;;;;2.25;0.90;;;22.10;47.10;;;;;;4975692;23;20121;-64
2022/06/27 01:50:50;;;;;;;1.85;0.70;;;21.90;47.30;;;;;;4949721;23;20355;-68
2022/06/27 01:52:53;;;;;;;1.80;0.70;;;21.80;47.60;;;;;;4947037;23;20493;-61
2022/06/27 01:54:59;;;;;;;2.53;0.70;;;21.60;47.70;;;;;;4972207;23;20461;-64
2022/06/27 01:57:01;;;;;;;2.10;0.80;;;21.50;48.70;;;;;;4974199;23;20034;-67
2022/06/27 01:59:04;;;;;;;3.88;0.93;;;21.40;48.30;;;;;;4949295;23;20742;-59
2022/06/27 02:01:06;;;;;;;1.73;0.83;;;21.30;48.40;;;;;;4968231;23;20041;-61
2022/06/27 02:03:08;;;;;;;1.73;0.95;;;21.30;48.60;;;;;;4945552;23;20082;-54
2022/06/27 02:05:11;;;;;;;2.22;0.75;;;21.20;48.70;;;;;;4928916;23;20406;-65
2022/06/27 02:07:13;;;;;;;2.47;0.97;;;21.10;48.90;;;;;;4973206;23;20388;-64
2022/06/27 02:09:16;;;;;;;3.38;1.15;;;21.00;48.80;;;;;;4920769;23;20317;-59
2022/06/27 02:11:20;;;;;;;0.85;0.70;;;21.00;49.00;;;;;;4950327;23;20031;-62
2022/06/27 02:13:22;;;;;;;2.05;0.50;;;20.90;49.00;;;;;;4950262;23;20079;-60
2022/06/27 02:15:24;;;;;;;2.13;0.85;;;20.90;49.30;;;;;;4970092;23;20353;-65
2022/06/27 02:17:26;;;;;;;3.20;1.00;;;20.80;49.30;;;;;;4922214;23;20028;-61
2022/06/27 02:19:29;;;;;;;2.80;1.10;;;20.80;49.40;;;;;;4948260;23;20031;-61
2022/06/27 02:21:31;;;;;;;1.80;0.90;;;20.70;49.50;;;;;;4947122;23;20039;-62
2022/06/27 02:23:33;;;;;;;2.17;0.90;;;20.70;49.70;;;;;;4973667;23;20105;-62
2022/06/27 02:25:36;;;;;;;1.50;0.88;;;20.60;49.50;;;;;;4951018;23;20106;-63
2022/06/27 02:27:40;;;;;;;3.05;0.98;;;20.60;49.60;;;;;;4950727;23;20281;-60
2022/06/27 02:29:42;;;;;;;2.25;1.33;;;20.60;49.90;;;;;;4945592;23;20035;-61
2022/06/27 02:31:50;;;;;;;2.53;1.02;;;20.50;50.00;;;;;;4976471;23;20457;-59
2022/06/27 02:33:54;;;;;;;1.38;0.80;;;20.50;50.00;;;;;;4975047;23;20596;-61
2022/06/27 02:35:56;;;;;;;1.60;0.82;;;20.50;50.10;;;;;;4973876;23;21127;-62
2022/06/27 02:37:59;;;;;;;1.10;0.73;;;20.40;50.10;;;;;;4972806;23;20189;-62
2022/06/27 02:40:02;;;;;;;1.55;0.80;;;20.40;50.20;;;;;;4970757;23;20126;-62
2022/06/27 02:42:06;;;;;;;1.35;0.80;;;20.30;50.20;;;;;;4953301;23;20060;-63
2022/06/27 02:44:13;;;;;;;1.80;1.00;;;20.30;50.30;;;;;;4946175;23;20597;-64
2022/06/27 02:46:16;;;;;;;2.08;0.90;;;20.30;50.40;;;;;;4972813;23;20049;-61
2022/06/27 02:48:20;;;;;;;1.50;0.80;;;20.30;50.40;;;;;;4947968;23;20374;-61
2022/06/27 02:50:26;;;;;;;1.73;0.90;;;20.20;50.40;;;;;;4978005;23;20114;-61
2022/06/27 02:52:41;;;;;;;3.28;1.08;;;20.20;50.50;;;;;;4947232;23;20466;-62
2022/06/27 02:54:53;;;;;;;1.30;0.57;;;20.20;50.60;;;;;;4978139;23;20105;-60
2022/06/27 02:57:08;;;;;;;2.92;0.82;;;20.10;50.90;;;;;;4979011;23;20026;-59
2022/06/27 02:59:16;;;;;;;3.13;0.80;;;20.10;50.90;;;;;;4952987;23;20446;-61
2022/06/27 03:01:20;;;;;;;3.63;1.17;;;20.10;50.90;;;;;;4975246;23;20097;-60
2022/06/27 03:03:25;;;;;;;3.22;0.93;;;20.10;50.90;;;;;;4974341;23;20035;-61
2022/06/27 03:05:27;;;;;;;1.70;0.98;;;20.10;50.90;;;;;;4973870;23;20046;-62
2022/06/27 03:07:30;;;;;;;1.30;0.90;;;20.00;50.80;;;;;;4977723;23;20440;-61
2022/06/27 03:09:32;;;;;;;1.88;0.98;;;20.10;50.70;;;;;;4977193;23;20065;-61
2022/06/27 03:11:34;;;;;;;1.30;0.77;;;20.00;50.40;;;;;;4946230;23;20149;-62
2022/06/27 03:13:37;;;;;;;5.18;1.33;;;20.10;50.30;;;;;;4925772;23;20042;-65
2022/06/27 03:15:39;;;;;;;3.65;1.30;;;20.60;49.40;;;;;;4982955;23;20042;-65
2022/06/27 03:17:41;;;;;;;3.60;1.38;;;21.30;48.20;;;;;;5000168;23;20098;-65
2022/06/27 03:19:56;;;;;;;2.55;1.00;;;22.00;47.00;;;;;;5020947;23;20374;-65
2022/06/27 03:21:58;;;;;;;2.55;0.80;;;22.70;45.90;;;;;;4996566;23;20410;-68
2022/06/27 03:26:17;;;;;;;1.70;0.90;;;23.60;44.30;;;;;;4982665;23;20343;-65
2022/06/27 03:28:20;;;;;;;1.73;0.95;;;24.00;43.50;;;;;;4981397;23;20280;-65
2022/06/27 03:30:22;;;;;;;2.70;1.00;;;24.30;43.00;;;;;;4977054;23;20777;-64
2022/06/27 03:32:24;;;;;;;3.35;0.80;;;24.70;42.60;;;;;;4972838;23;20023;-64
2022/06/27 03:34:26;;;;;;;1.15;0.60;;;25.00;42.30;;;;;;4957289;23;20529;-64
2022/06/27 03:36:29;;;;;;;1.85;0.90;;;25.10;41.90;;;;;;4976263;23;20813;-67
2022/06/27 03:38:31;;;;;;;2.87;1.40;;;25.40;41.80;;;;;;4949654;23;20034;-62
2022/06/27 03:40:35;;;;;;;2.70;1.02;;;25.50;41.90;;;;;;4950030;23;20082;-64
2022/06/27 03:42:37;;;;;;;1.42;0.70;;;25.80;42.00;;;;;;4928986;23;20027;-65
2022/06/27 03:44:39;;;;;;;1.98;1.02;;;25.90;41.90;;;;;;4972507;23;20760;-62
2022/06/27 03:46:41;;;;;;;2.47;1.27;;;26.10;41.90;;;;;;4947600;23;20532;-65
2022/06/27 03:51:04;;;;;;;1.63;0.82;;;25.40;42.60;;;;;;4970481;23;21046;-66
2022/06/27 03:53:06;;;;;;;3.10;0.77;;;25.00;43.50;;;;;;4928624;23;20027;-64
2022/06/27 03:55:10;;;;;;;1.92;1.13;;;24.60;44.00;;;;;;4941808;23;20556;-63
2022/06/27 03:57:13;;;;;;;1.73;0.80;;;24.30;44.40;;;;;;4973280;23;20037;-64
2022/06/27 03:59:15;;;;;;;2.55;0.65;;;24.00;44.90;;;;;;4976323;23;20039;-61
2022/06/27 04:01:17;;;;;;;5.65;1.05;;;23.80;45.40;;;;;;4974930;23;20188;-63
2022/06/27 04:03:20;;;;;;;2.55;1.00;;;23.60;45.60;;;;;;4944583;23;20738;-65
2022/06/27 04:05:25;;;;;;;1.40;0.77;;;23.40;45.60;;;;;;4945432;23;20035;-67
2022/06/27 04:07:28;;;;;;;2.58;0.90;;;23.30;45.80;;;;;;4954274;23;20063;-67
2022/06/27 04:09:31;;;;;;;2.58;0.70;;;23.10;46.00;;;;;;4947095;23;20608;-63
2022/06/27 04:11:33;;;;;;;3.40;0.98;;;23.00;46.20;;;;;;4972212;23;20433;-56
2022/06/27 04:13:35;;;;;;;3.95;1.10;;;22.90;45.10;;;;;;4948304;23;20382;-61
2022/06/27 04:15:38;;;;;;;3.72;1.60;;;22.80;45.40;;;;;;4951974;23;20167;-67
2022/06/27 04:17:40;;;;;;;4.63;1.20;;;22.60;46.40;;;;;;4945518;23;20035;-71
2022/06/27 04:19:42;;;;;;;2.83;1.20;;;22.60;46.40;;;;;;4946854;23;20060;-67
2022/06/27 04:21:44;;;;;;;2.77;1.20;;;22.40;47.00;;;;;;4950861;23;20035;-69
2022/06/27 04:23:47;;;;;;;2.35;1.10;;;22.40;47.50;;;;;;4947868;23;20244;-72
2022/06/27 04:25:49;;;;;;;2.33;1.00;;;22.30;47.70;;;;;;4947296;23;20147;-67
2022/06/27 04:27:51;;;;;;;1.70;0.93;;;22.20;47.90;;;;;;4979543;23;20117;-68
2022/06/27 04:29:54;;;;;;;3.17;1.15;;;22.20;48.10;;;;;;4948764;23;20034;-69
2022/06/27 04:31:57;;;;;;;4.50;1.17;;;22.10;48.10;;;;;;4947162;23;20206;-67
2022/06/27 04:33:59;;;;;;;2.42;0.98;;;22.10;48.30;;;;;;4975184;23;20037;-65
2022/06/27 04:36:02;;;;;;;1.98;0.90;;;22.00;48.20;;;;;;4978184;23;20031;-72
2022/06/27 04:38:05;;;;;;;1.10;0.95;;;22.00;48.40;;;;;;4947466;23;20107;-66
2022/06/27 04:40:10;;;;;;;2.35;0.93;;;21.90;48.30;;;;;;4945760;23;20241;-73
2022/06/27 04:42:13;;;;;;;3.17;1.33;;;21.90;48.40;;;;;;4950139;23;20094;-71
2022/06/27 04:44:18;;;;;;;3.25;1.25;;;21.80;48.30;;;;;;4976819;23;20435;-71
2022/06/27 04:46:21;;;;;;;3.78;1.10;;;21.70;48.20;;;;;;4949378;23;20031;-69
2022/06/27 04:48:26;;;;;;;2.28;0.98;;;21.70;48.20;;;;;;4922778;23;20035;-68
2022/06/27 04:50:29;;;;;;;1.85;0.93;;;21.60;48.20;;;;;;4977782;23;20038;-66
2022/06/27 04:52:31;;;;;;;0.82;0.68;;;21.60;48.40;;;;;;4952962;23;20679;-68
2022/06/27 04:54:34;;;;;;;2.35;1.20;;;21.50;48.40;;;;;;4973684;23;20086;-73
2022/06/27 04:56:37;;;;;;;;;;;21.50;48.40;;;;;;4948225;23;20055;-72
2022/06/27 04:58:42;;;;;;;2.60;1.05;;;21.50;48.30;;;;;;4953948;23;20062;-64
2022/06/27 05:00:46;;;;;;;2.72;1.42;;;21.40;48.20;;;;;;4973320;23;20548;-63
2022/06/27 05:02:47;;;;;;;;;;;21.40;48.20;;;;;;4950738;23;20091;-55
2022/06/27 05:04:50;;;;;;;2.72;0.90;;;21.40;48.70;;;;;;4970338;23;19932;-65
2022/06/27 05:06:52;;;;;;;2.10;1.20;;;21.30;48.90;;;;;;4952596;23;20137;-70
2022/06/27 05:08:54;;;;;;;2.30;1.20;;;21.30;49.10;;;;;;4967135;23;20038;-65
2022/06/27 05:10:57;;;;;;;1.90;1.15;;;21.30;48.80;;;;;;4971400;23;20030;-73
2022/06/27 05:13:02;;;;;;;0.90;0.77;;;21.20;48.50;;;;;;4977297;23;20038;-74
2022/06/27 05:15:05;;;;;;;4.53;1.00;;;21.20;48.50;;;;;;4951540;23;20472;-62
2022/06/27 05:17:07;;;;;;;1.67;0.90;;;21.10;48.60;;;;;;4972281;23;20031;-67
2022/06/27 05:19:10;;;;;;;2.30;0.95;;;21.10;48.40;;;;;;4973570;23;20113;-65
2022/06/27 05:21:15;;;;;;;2.58;1.10;;;21.00;48.40;;;;;;4951987;23;20539;-64
2022/06/27 05:23:17;;;;;;;1.65;1.30;;;21.00;48.30;;;;;;4948510;23;20074;-64
2022/06/27 05:25:20;;;;;;;1.90;1.30;;;21.00;48.30;;;;;;4947767;23;20035;-67
2022/06/27 05:27:23;;;;;;;3.28;0.98;;;20.90;48.20;;;;;;4948907;23;20395;-67
2022/06/27 05:29:25;;;;;;;3.10;1.17;;;20.90;48.40;;;;;;4979124;23;20038;-75
2022/06/27 05:31:28;;;;;;;1.33;0.90;;;20.80;48.30;;;;;;4947161;23;20462;-72
2022/06/27 05:33:30;;;;;;;3.58;1.27;;;20.80;48.20;;;;;;4974358;23;20031;-72
2022/06/27 05:35:32;;;;;;;6.82;1.33;;;20.80;48.30;;;;;;4923580;23;20405;-72
2022/06/27 05:37:44;;;;;;;2.17;1.23;;;20.70;48.10;;;;;;4922937;23;20464;-66
2022/06/27 05:39:46;;;;;;;2.35;1.05;;;20.70;48.30;;;;;;4967519;23;20287;-65
2022/06/27 05:41:48;;;;;;;3.17;1.65;;;20.70;48.30;;;;;;4943460;23;20370;-65
2022/06/27 05:43:51;;;;;;;1.85;0.90;;;20.60;48.40;;;;;;4947553;23;20063;-64
2022/06/27 05:45:53;;;;;;;2.67;1.50;;;20.60;48.60;;;;;;4925557;23;20900;-67
2022/06/27 05:48:03;;;;;;;1.90;1.20;;;20.60;48.30;;;;;;4970825;23;20086;-63
2022/06/27 05:50:06;;;;;;;2.35;1.20;;;20.60;48.50;;;;;;4947536;23;20043;-67
2022/06/27 05:52:08;;;;;;;2.33;1.00;;;20.50;48.50;;;;;;4927138;23;20427;-69
2022/06/27 05:54:12;;;;;;;2.47;1.23;;;20.50;48.60;;;;;;4949143;23;20122;-69
2022/06/27 05:56:14;;;;;;;1.95;0.90;;;20.50;48.70;;;;;;4972016;23;20026;-67
2022/06/27 05:58:18;;;;;;;2.43;1.23;;;20.50;48.70;;;;;;4945277;23;20091;-66
2022/06/27 06:00:21;;;;;;;4.15;1.25;;;20.40;48.70;;;;;;4977495;23;20493;-69
2022/06/27 06:02:24;;;;;;;;;;;20.40;48.60;;;;;;4974814;23;20031;-65
2022/06/27 06:04:27;;;;;;;2.20;1.38;;;20.30;48.70;;;;;;4971022;23;19921;-67
2022/06/27 06:06:33;;;;;;;1.40;0.95;;;20.30;48.90;;;;;;4969554;23;20109;-66
2022/06/27 06:08:36;;;;;;;5.00;1.50;;;20.30;48.70;;;;;;4954791;23;20408;-67
2022/06/27 06:10:38;;;;;;;2.10;1.30;;;20.30;48.80;;;;;;4944881;23;20397;-66
2022/06/27 06:12:42;;;;;;;2.35;1.10;;;20.20;48.90;;;;;;4947830;23;20379;-69
2022/06/27 06:14:46;;;;;;;2.15;1.17;;;20.20;48.70;;;;;;4975101;23;20031;-66
2022/06/27 06:16:49;;;;;;;2.30;1.13;;;20.20;48.70;;;;;;4950945;23;20399;-69
2022/06/27 06:18:57;;;;;;;1.17;0.90;;;20.20;48.70;;;;;;4971444;23;21144;-68
2022/06/27 06:20:59;;;;;;;3.10;1.08;;;20.20;48.80;;;;;;4944909;23;20038;-66
2022/06/27 06:23:02;;;;;;;1.33;1.10;;;20.10;48.70;;;;;;4972713;23;20098;-72
2022/06/27 06:25:05;;;;;;;1.63;1.00;;;20.10;48.70;;;;;;4953185;23;20023;-68
2022/06/27 06:27:07;;;;;;;1.15;0.98;;;20.10;48.70;;;;;;4944977;23;20435;-65
2022/06/27 06:29:12;;;;;;;2.75;1.30;;;20.10;48.70;;;;;;4970555;23;20461;-64
2022/06/27 06:31:21;;;;;;;2.72;1.10;;;20.00;48.70;;;;;;4948794;23;20038;-67
2022/06/27 06:33:24;;;;;;;2.30;1.40;;;20.00;48.70;;;;;;4954567;23;20050;-70
2022/06/27 06:35:26;;;;;;;3.38;1.23;;;20.10;48.50;;;;;;4972987;23;20593;-71
2022/06/27 06:37:29;;;;;;;1.53;1.00;;;20.10;48.20;;;;;;4972277;23;20042;-70
2022/06/27 06:39:32;;;;;;;3.28;1.23;;;20.20;48.00;;;;;;4973206;23;20059;-69
2022/06/27 06:41:36;;;;;;;3.90;1.13;;;20.10;48.20;;;;;;4951058;23;20027;-67
2022/06/27 06:43:38;;;;;;;1.90;1.17;;;20.00;48.20;;;;;;4944320;23;20090;-65
2022/06/27 06:45:41;;;;;;;1.83;0.80;;;20.00;48.20;;;;;;4945407;23;20062;-69
2022/06/27 06:47:44;;;;;;;1.73;1.20;;;19.90;48.30;;;;;;4976904;23;20034;-71
2022/06/27 06:49:48;;;;;;;2.13;1.13;;;19.90;48.40;;;;;;4951170;23;20892;-62
2022/06/27 06:51:50;;;;;;;1.88;0.90;;;19.80;48.50;;;;;;4972690;23;20146;-74
2022/06/27 06:53:53;;;;;;;1.83;1.08;;;19.70;48.40;;;;;;4972441;23;20101;-72
2022/06/27 06:55:57;;;;;;;2.92;1.25;;;19.80;48.50;;;;;;4975245;23;20114;-68
2022/06/27 06:57:59;;;;;;;1.65;0.80;;;19.70;49.00;;;;;;4946762;23;20708;-70
2022/06/27 07:00:01;;;;;;;4.68;1.10;;;19.70;48.20;;;;;;4946645;23;20528;-69
2022/06/27 07:02:05;;;;;;;0.80;0.70;;;19.60;48.20;;;;;;4976951;23;20210;-68
2022/06/27 07:04:08;;;;;;;1.63;1.00;;;19.60;47.80;;;;;;4975604;23;20334;-70
2022/06/27 07:06:12;;;;;;;;;;;19.70;47.50;;;;;;4974127;23;20052;-69
2022/06/27 07:08:15;;;;;;;1.63;0.98;;;20.20;47.00;;;;;;4973180;23;20097;-72
2022/06/27 07:10:18;;;;;;;2.45;1.23;;;20.90;46.00;;;;;;4953491;23;20759;-65
2022/06/27 07:12:20;;;;;;;;;;;21.50;45.10;;;;;;4947526;23;20401;-69
2022/06/27 07:14:27;;;;;;;2.15;0.90;;;22.00;44.30;;;;;;4946371;23;19982;-66
2022/06/27 07:16:48;;;;;;;2.05;1.00;;;22.50;43.50;;;;;;4930436;23;20933;-71
2022/06/27 07:18:51;;;;;;;2.33;0.90;;;23.00;43.30;;;;;;4946245;23;20138;-73
2022/06/27 07:20:53;;;;;;;4.88;1.13;;;23.40;42.20;;;;;;4947195;23;20062;-72
2022/06/27 07:22:55;;;;;;;2.17;1.00;;;23.70;41.70;;;;;;4954503;23;20413;-68
2022/06/27 07:24:58;;;;;;;0.90;0.70;;;24.00;41.10;;;;;;4971567;23;20286;-71
2022/06/27 07:27:01;;;;;;;3.78;1.10;;;24.30;40.70;;;;;;4947427;23;20035;-73
2022/06/27 07:29:05;;;;;;;1.17;0.68;;;24.60;40.50;;;;;;4976835;23;20551;-66
2022/06/27 07:31:12;;;;;;;1.08;0.70;;;24.80;40.30;;;;;;4952588;23;20140;-68
2022/06/27 07:33:14;;;;;;;1.60;0.90;;;25.00;40.40;;;;;;4971228;23;20677;-61
2022/06/27 07:35:17;;;;;;;2.30;1.10;;;25.20;40.40;;;;;;4970732;23;20034;-61
2022/06/27 07:37:19;;;;;;;4.47;0.70;;;25.40;40.40;;;;;;4976242;23;20035;-61
2022/06/27 07:39:22;;;;;;;2.92;0.90;;;25.60;40.30;;;;;;4975168;23;20913;-61
2022/06/27 07:41:24;;;;;;;1.33;0.65;;;25.80;40.20;;;;;;4970076;23;20026;-60
2022/06/27 07:43:26;;;;;;;1.27;0.63;;;26.00;40.10;;;;;;4974633;23;20034;-62
2022/06/27 07:45:28;;;;;;;1.93;0.80;;;26.20;40.10;;;;;;4953513;23;20471;-69
2022/06/27 07:47:31;;;;;;;2.90;0.75;;;26.30;40.00;;;;;;4944894;23;20031;-62
2022/06/27 07:49:33;;;;;;;2.33;0.80;;;26.50;40.00;;;;;;4972769;23;20041;-65
2022/06/27 07:51:35;;;;;;;6.32;1.33;;;26.60;40.00;;;;;;4979421;23;20109;-66
2022/06/27 07:53:38;;;;;;;2.70;0.85;;;26.70;40.00;;;;;;4973362;23;20034;-67
2022/06/27 07:55:49;;;;;;;;;;;26.90;39.90;;;;;;4975162;23;20037;-66
2022/06/27 07:57:52;;;;;;;3.28;0.90;;;27.00;40.50;;;;;;4991221;23;19914;-67
2022/06/27 07:59:54;;;;;;;0.85;0.57;;;27.10;39.60;;;;;;4968376;23;20031;-65
2022/06/27 08:01:56;;;;;;;3.58;0.77;;;27.30;39.50;;;;;;4978752;23;20737;-63
2022/06/27 08:04:08;;;;;;;4.23;0.60;;;27.40;39.50;;;;;;4992774;23;20058;-63
2022/06/27 08:06:17;;;;;;;0.93;0.60;;;27.50;39.50;;;;;;4959317;23;20027;-63
2022/06/27 08:08:21;;;;;;;1.13;0.80;;;27.60;39.30;;;;;;4949757;23;20031;-66
2022/06/27 08:10:23;;;;;;;2.40;0.68;;;27.80;39.40;;;;;;4976534;23;20031;-63
2022/06/27 08:12:26;;;;;;;1.23;0.60;;;27.80;39.20;;;;;;4949720;23;20138;-63
2022/06/27 08:14:28;;;;;;;1.15;0.80;;;27.90;39.30;;;;;;4947794;23;20489;-67
2022/06/27 08:16:32;;;;;;;0.55;0.40;;;27.60;39.30;;;;;;4947953;23;20401;-67
2022/06/27 08:18:36;;;;;;;1.40;0.60;;;27.20;39.80;;;;;;4979283;23;20134;-66
2022/06/27 08:20:38;;;;;;;1.52;0.40;;;26.80;40.20;;;;;;4974071;23;20408;-66
2022/06/27 08:22:43;;;;;;;0.40;0.40;;;26.30;40.50;;;;;;4972027;23;20069;-64
2022/06/27 08:24:46;;;;;;;1.05;0.70;;;26.00;41.10;;;;;;4973117;23;20358;-63
2022/06/27 08:26:49;;;;;;;0.77;0.40;;;25.70;41.50;;;;;;4950651;23;20035;-66
2022/06/27 08:28:52;;;;;;;1.73;0.50;;;25.40;41.70;;;;;;4972825;23;20034;-61
2022/06/27 08:30:56;;;;;;;1.10;0.70;;;25.10;42.30;;;;;;4971272;23;20656;-63
2022/06/27 08:33:00;;;;;;;2.53;0.65;;;24.90;42.60;;;;;;4972615;23;20038;-70
2022/06/27 08:35:03;;;;;;;1.27;0.60;;;24.70;42.80;;;;;;4977760;23;20433;-69
2022/06/27 08:37:06;;;;;;;1.35;0.65;;;24.60;43.70;;;;;;4948125;23;20627;-68
2022/06/27 08:39:22;;;;;;;2.70;0.50;;;24.40;43.20;;;;;;4943593;23;20032;-65
2022/06/27 08:41:26;;;;;;;0.70;0.52;;;24.20;43.50;;;;;;4946895;23;20042;-67
2022/06/27 08:43:29;;;;;;;1.48;0.60;;;24.10;43.80;;;;;;4970450;23;20027;-66
2022/06/27 08:45:32;;;;;;;0.85;0.52;;;24.00;44.10;;;;;;4975548;23;20029;-65
2022/06/27 08:47:34;;;;;;;0.77;0.60;;;23.80;44.20;;;;;;4943887;23;20061;-70
2022/06/27 08:49:37;;;;;;;0.50;0.50;;;23.70;44.40;;;;;;4946725;23;20107;-74
2022/06/27 08:51:40;;;;;;;2.67;0.70;;;23.60;44.60;;;;;;4949921;23;20352;-73
2022/06/27 08:53:43;;;;;;;0.95;0.50;;;23.50;44.60;;;;;;4975141;23;21038;-70
2022/06/27 08:55:47;;;;;;;1.02;0.50;;;23.40;44.90;;;;;;4972188;23;20031;-71
2022/06/27 08:57:49;;;;;;;1.73;0.60;;;23.30;44.90;;;;;;4969861;23;20629;-69
2022/06/27 08:59:54;;;;;;;1.60;0.70;;;23.20;45.10;;;;;;4947648;23;20433;-67
2022/06/27 09:01:57;;;;;;;1.90;0.70;;;23.10;45.10;;;;;;4974210;23;20240;-68
2022/06/27 09:04:06;;;;;;;1.20;0.70;;;23.00;45.00;;;;;;4972128;23;20093;-67
2022/06/27 09:06:10;;;;;;;0.85;0.65;;;22.90;45.30;;;;;;4971921;23;20237;-71
2022/06/27 09:08:13;;;;;;;1.00;0.50;;;22.80;45.50;;;;;;4945707;23;20146;-69
2022/06/27 09:10:42;;;;;;;1.27;0.60;;;22.70;45.70;;;;;;4972010;23;20026;-69
2022/06/27 09:13:12;;;;;;;1.23;0.50;;;22.60;46.00;;;;;;4943006;23;20599;-66
2022/06/27 09:15:14;;;;;;;1.80;0.65;;;22.50;46.00;;;;;;4946872;23;20035;-69
2022/06/27 09:17:16;;;;;;;0.57;0.50;;;22.40;45.90;;;;;;4945890;23;20790;-65
2022/06/27 09:19:49;;;;;;;1.65;0.52;;;22.40;46.30;;;;;;4944754;23;20611;-66
2022/06/27 09:22:14;;;;;;;0.77;0.43;;;22.30;46.30;;;;;;4977210;23;20038;-64
2022/06/27 09:24:17;;;;;;;0.70;0.50;;;22.20;46.40;;;;;;4969710;23;20034;-63
2022/06/27 09:26:21;;;;;;;;;;;22.10;46.40;;;;;;4977080;23;20035;-68
2022/06/27 09:28:36;;;;;;;1.48;0.73;;;22.00;46.50;;;;;;4948139;23;19922;-71
2022/06/27 09:30:38;;;;;;;0.90;0.40;;;21.90;46.50;;;;;;4950496;23;20031;-71
2022/06/27 09:32:41;;;;;;;0.57;0.57;;;21.90;46.80;;;;;;4945485;23;20125;-66
2022/06/27 09:34:43;;;;;;;2.08;0.57;;;21.80;46.70;;;;;;4971023;23;20030;-72
2022/06/27 09:36:54;;;;;;;2.78;0.68;;;21.70;46.90;;;;;;4976851;23;20027;-68
2022/06/27 09:38:57;;;;;;;0.40;0.35;;;21.60;46.90;;;;;;4976904;23;20031;-68
2022/06/27 09:40:59;;;;;;;1.90;0.50;;;21.50;46.90;;;;;;4942583;23;20467;-73
2022/06/27 09:43:03;;;;;;;5.00;0.98;;;21.50;47.10;;;;;;4969789;23;20094;-67
2022/06/27 09:45:09;;;;;;;0.77;0.52;;;21.40;47.10;;;;;;4950030;23;20134;-65
2022/06/27 09:47:22;;;;;;;0.47;0.47;;;21.40;47.60;;;;;;4976338;23;20101;-66
2022/06/27 09:49:26;;;;;;;;;;;21.30;47.50;;;;;;4974818;23;20030;-75
2022/06/27 09:51:29;;;;;;;1.25;0.75;;;21.20;47.80;;;;;;4919808;23;20312;-67
2022/06/27 09:53:31;;;;;;;0.37;0.37;;;21.20;47.60;;;;;;4946291;23;20085;-74
2022/06/27 09:55:35;;;;;;;1.17;0.63;;;21.10;47.70;;;;;;4947093;23;20023;-73
2022/06/27 09:57:37;;;;;;;0.60;0.60;;;21.10;47.90;;;;;;4951600;23;20031;-71
2022/06/27 09:59:40;;;;;;;0.67;0.60;;;21.00;48.10;;;;;;4946685;23;20054;-75
2022/06/27 10:01:43;;;;;;;0.80;0.60;;;21.00;48.30;;;;;;4969993;23;20077;-69
2022/06/27 10:03:45;;;;;;;0.70;0.50;;;20.90;48.20;;;;;;4975415;23;20035;-64
2022/06/27 10:05:48;;;;;;;1.77;0.60;;;20.90;48.40;;;;;;4920245;23;20348;-68
2022/06/27 10:08:04;;;;;;;0.95;0.52;;;20.80;48.40;;;;;;4945552;23;20548;-68
2022/06/27 10:10:08;;;;;;;1.48;0.80;;;20.70;48.50;;;;;;4971791;23;20042;-69
2022/06/27 10:12:36;;;;;;;0.60;0.57;;;20.70;48.80;;;;;;4971222;23;20038;-69
2022/06/27 10:14:38;;;;;;;0.80;0.63;;;20.60;48.60;;;;;;4960682;23;20323;-72
2022/06/27 10:16:59;;;;;;;0.63;0.57;;;20.60;48.50;;;;;;4945142;23;20041;-71
2022/06/27 10:19:04;;;;;;;1.00;0.70;;;20.50;48.40;;;;;;4971299;23;20035;-69
2022/06/27 10:21:42;;;;;;;0.90;0.65;;;20.50;48.60;;;;;;4972675;23;20127;-71
2022/06/27 10:24:19;;;;;;;0.70;0.70;;;20.40;48.40;;;;;;4885222;23;20031;-68
2022/06/27 10:26:41;;;;;;;0.90;0.55;;;20.30;48.40;;;;;;4976993;23;20031;-72
2022/06/27 10:28:44;;;;;;;0.80;0.52;;;20.30;48.40;;;;;;4922907;23;20087;-70
2022/06/27 10:31:00;;;;;;;1.05;0.95;;;20.20;48.40;;;;;;4950644;23;20104;-68
2022/06/27 10:33:21;;;;;;;0.93;0.50;;;20.20;48.30;;;;;;4948879;23;20648;-62
2022/06/27 10:35:24;;;;;;;0.70;0.70;;;20.10;48.40;;;;;;4971282;23;20037;-61
2022/06/27 10:37:29;;;;;;;1.88;1.10;;;20.10;48.70;;;;;;4971762;23;20117;-63
2022/06/27 10:39:32;;;;;;;0.68;0.68;;;20.00;48.40;;;;;;4978384;23;20110;-69
2022/06/27 10:41:34;;;;;;;0.90;0.88;;;19.90;48.60;;;;;;4971348;23;20035;-71
2022/06/27 10:43:54;;;;;;;1.83;1.00;;;19.90;48.70;;;;;;4924292;23;20071;-63
2022/06/27 10:45:56;;;;;;;2.17;1.40;;;19.90;49.10;;;;;;4971258;23;20121;-63
2022/06/27 10:48:02;;;;;;;2.78;1.50;;;19.80;48.30;;;;;;4969291;23;20132;-69
2022/06/27 10:50:12;;;;;;;3.08;1.75;;;19.80;48.40;;;;;;4951354;23;20051;-71
2022/06/27 10:52:24;;;;;;;2.45;1.42;;;19.60;48.70;;;;;;4978011;23;20027;-69
2022/06/27 10:54:38;;;;;;;3.30;1.50;;;19.60;48.50;;;;;;4949390;23;20102;-68
2022/06/27 10:56:44;;;;;;;3.63;1.38;;;19.60;49.00;;;;;;4974380;23;20034;-68